Time,TemperatureF,DewpointF,PressureIn,WindDirection,WindDirectionDegrees,WindSpeedMPH,WindSpeedGustMPH,Humidity,HourlyPrecipIn,Conditions,Clouds,dailyrainin,SolarRadiationWatts/m^2,SoftwareType,DateUTC
2013-02-24 00:22:00,35.0,35.0,-100.00,East,97,0.0,2.0,100,0.00,,,0.26,0.000000,,2013-02-24 08:22:00,
2013-02-24 00:31:00,35.0,35.0,-100.00,East,97,0.0,2.0,100,0.00,,,0.26,0.000000,,2013-02-24 08:31:00,
2013-02-24 00:41:00,35.0,35.0,-100.00,East,97,0.0,2.0,100,0.00,,,0.26,0.000000,,2013-02-24 08:41:00,
2013-02-24 00:53:00,35.0,35.0,-100.00,East,97,0.0,2.0,100,0.00,,,0.26,0.000000,,2013-02-24 08:53:00,
2013-02-24 01:21:00,33.0,33.0,-100.00,NW,321,0.0,2.0,100,0.00,,,0.25,0.000000,,2013-02-24 09:21:00,
2013-02-24 01:31:00,33.0,33.0,-100.00,NW,321,0.0,2.0,100,0.00,,,0.25,0.000000,,2013-02-24 09:31:00,
2013-02-24 01:41:00,33.0,33.0,-100.00,NW,321,0.0,2.0,100,0.00,,,0.25,0.000000,,2013-02-24 09:41:00,
2013-02-24 01:51:00,33.0,33.0,-100.00,NW,321,0.0,2.0,100,0.00,,,0.25,0.000000,,2013-02-24 09:51:00,
2013-02-24 02:21:00,35.0,35.0,-100.00,South,184,0.0,2.0,100,0.00,,,0.23,0.000000,,2013-02-24 10:21:00,
2013-02-24 02:31:00,35.0,35.0,-100.00,South,184,0.0,2.0,100,0.00,,,0.23,0.000000,,2013-02-24 10:31:00,
2013-02-24 02:41:00,35.0,35.0,-100.00,South,184,0.0,2.0,100,0.00,,,0.23,0.000000,,2013-02-24 10:41:00,
2013-02-24 02:51:00,35.0,35.0,-100.00,South,184,0.0,2.0,100,0.00,,,0.23,0.000000,,2013-02-24 10:51:00,
2013-02-24 03:21:00,35.0,35.0,-100.00,East,87,0.0,0.0,100,0.00,,,0.20,0.000000,,2013-02-24 11:21:00,
2013-02-24 03:32:00,35.0,35.0,-100.00,East,87,0.0,0.0,100,0.00,,,0.20,0.000000,,2013-02-24 11:32:00,
2013-02-24 03:41:00,35.0,35.0,-100.00,East,87,0.0,0.0,100,0.00,,,0.20,0.000000,,2013-02-24 11:41:00,
2013-02-24 03:52:00,35.0,35.0,-100.00,East,87,0.0,0.0,100,0.00,,,0.20,0.000000,,2013-02-24 11:52:00,
2013-02-24 04:21:00,33.0,33.0,-100.00,NE,47,0.0,2.0,100,0.00,,,0.19,0.000000,,2013-02-24 12:21:00,
2013-02-24 04:32:00,33.0,33.0,-100.00,NE,47,0.0,2.0,100,0.00,,,0.19,0.000000,,2013-02-24 12:32:00,
2013-02-24 04:46:00,33.0,33.0,-100.00,NE,47,0.0,2.0,100,0.00,,,0.19,0.000000,,2013-02-24 12:46:00,
2013-02-24 04:55:00,33.0,33.0,-100.00,NE,47,0.0,2.0,100,0.00,,,0.19,0.000000,,2013-02-24 12:55:00,
2013-02-24 05:33:00,35.0,35.0,-100.00,NNW,338,0.0,2.0,100,0.00,,,0.19,0.000000,,2013-02-24 13:33:00,
2013-02-24 05:43:00,35.0,35.0,-100.00,NNW,338,0.0,2.0,100,0.00,,,0.19,0.000000,,2013-02-24 13:43:00,
2013-02-24 05:52:00,35.0,35.0,-100.00,NNW,338,0.0,2.0,100,0.00,,,0.19,0.000000,,2013-02-24 13:52:00,
2013-02-24 06:23:00,35.0,35.0,-100.00,South,184,0.0,2.0,100,0.00,,,0.18,0.000000,,2013-02-24 14:23:00,
2013-02-24 06:32:00,35.0,35.0,-100.00,South,184,0.0,2.0,100,0.00,,,0.18,0.000000,,2013-02-24 14:32:00,
2013-02-24 06:43:00,35.0,35.0,-100.00,South,184,0.0,2.0,100,0.00,,,0.18,0.000000,,2013-02-24 14:43:00,
2013-02-24 06:52:00,35.0,35.0,-100.00,South,184,0.0,2.0,100,0.00,,,0.18,0.000000,,2013-02-24 14:52:00,
2013-02-24 07:22:00,34.0,34.0,-100.00,South,186,1.0,2.0,100,0.00,,,0.17,0.000000,,2013-02-24 15:22:00,
2013-02-24 07:32:00,34.0,34.0,-100.00,South,186,1.0,2.0,100,0.00,,,0.17,0.000000,,2013-02-24 15:32:00,
2013-02-24 07:42:00,34.0,34.0,-100.00,South,186,1.0,2.0,100,0.00,,,0.17,0.000000,,2013-02-24 15:42:00,
2013-02-24 07:52:00,34.0,34.0,-100.00,South,186,1.0,2.0,100,0.00,,,0.17,0.000000,,2013-02-24 15:52:00,
2013-02-24 08:21:00,36.0,34.0,-100.00,South,172,1.0,4.0,94,0.00,,,0.15,0.000000,,2013-02-24 16:21:00,
2013-02-24 08:31:00,36.0,34.0,-100.00,South,172,1.0,4.0,94,0.00,,,0.15,0.000000,,2013-02-24 16:31:00,
2013-02-24 08:41:00,36.0,34.0,-100.00,South,172,1.0,4.0,94,0.00,,,0.15,0.000000,,2013-02-24 16:41:00,
2013-02-24 08:52:00,36.0,34.0,-100.00,South,172,1.0,4.0,94,0.00,,,0.15,0.000000,,2013-02-24 16:52:00,
2013-02-24 09:21:00,36.0,33.0,-100.00,South,183,1.0,4.0,87,0.00,,,0.11,15.000000,,2013-02-24 17:21:00,
2013-02-24 09:32:00,36.0,33.0,-100.00,South,183,1.0,4.0,87,0.00,,,0.11,15.000000,,2013-02-24 17:32:00,
2013-02-24 09:41:00,36.0,33.0,-100.00,South,183,1.0,4.0,87,0.00,,,0.11,15.000000,,2013-02-24 17:41:00,
2013-02-24 09:52:00,36.0,33.0,-100.00,South,183,1.0,4.0,87,0.00,,,0.11,15.000000,,2013-02-24 17:52:00,
2013-02-24 10:22:00,40.0,35.0,-100.00,South,185,1.0,4.0,82,0.00,,,0.08,46.000000,,2013-02-24 18:22:00,
2013-02-24 10:31:00,40.0,35.0,-100.00,South,185,1.0,4.0,82,0.00,,,0.08,46.000000,,2013-02-24 18:31:00,
2013-02-24 10:42:00,40.0,35.0,-100.00,South,185,1.0,4.0,82,0.00,,,0.08,46.000000,,2013-02-24 18:42:00,
2013-02-24 10:51:00,40.0,35.0,-100.00,South,185,1.0,4.0,82,0.00,,,0.08,46.000000,,2013-02-24 18:51:00,
2013-02-24 11:22:00,43.0,35.0,-100.00,South,188,2.0,7.0,72,0.00,,,0.03,80.000000,,2013-02-24 19:22:00,
2013-02-24 11:32:00,43.0,35.0,-100.00,South,188,2.0,7.0,72,0.00,,,0.03,80.000000,,2013-02-24 19:32:00,
2013-02-24 11:41:00,43.0,35.0,-100.00,South,188,2.0,7.0,72,0.00,,,0.03,80.000000,,2013-02-24 19:41:00,
2013-02-24 11:51:00,43.0,35.0,-100.00,South,188,2.0,7.0,72,0.00,,,0.03,80.000000,,2013-02-24 19:51:00,
2013-02-24 12:21:00,46.0,37.0,-100.00,South,190,2.0,6.0,70,0.00,,,0.03,371.000000,,2013-02-24 20:21:00,
2013-02-24 12:31:00,46.0,37.0,-100.00,South,190,2.0,6.0,70,0.00,,,0.03,371.000000,,2013-02-24 20:31:00,
2013-02-24 12:41:00,46.0,37.0,-100.00,South,190,2.0,6.0,70,0.00,,,0.03,371.000000,,2013-02-24 20:41:00,
2013-02-24 12:52:00,46.0,37.0,-100.00,South,190,2.0,6.0,70,0.00,,,0.03,371.000000,,2013-02-24 20:52:00,
2013-02-24 13:21:00,51.0,37.0,-100.00,SSW,192,2.0,13.0,58,0.00,,,0.02,401.000000,,2013-02-24 21:21:00,
2013-02-24 13:32:00,51.0,37.0,-100.00,SSW,192,2.0,13.0,58,0.00,,,0.02,401.000000,,2013-02-24 21:32:00,
2013-02-24 13:41:00,51.0,37.0,-100.00,SSW,192,2.0,13.0,58,0.00,,,0.02,401.000000,,2013-02-24 21:41:00,
2013-02-24 13:52:00,51.0,37.0,-100.00,SSW,192,2.0,13.0,58,0.00,,,0.02,401.000000,,2013-02-24 21:52:00,
2013-02-24 14:21:00,52.0,35.0,-100.00,South,188,2.0,7.0,52,0.00,,,0.01,697.000000,,2013-02-24 22:21:00,
2013-02-24 14:31:00,52.0,35.0,-100.00,South,188,2.0,7.0,52,0.00,,,0.01,697.000000,,2013-02-24 22:31:00,
2013-02-24 14:41:00,52.0,35.0,-100.00,South,188,2.0,7.0,52,0.00,,,0.01,697.000000,,2013-02-24 22:41:00,
2013-02-24 14:51:00,52.0,35.0,-100.00,South,188,2.0,7.0,52,0.00,,,0.01,697.000000,,2013-02-24 22:51:00,
2013-02-24 15:21:00,53.0,34.0,-100.00,South,190,3.0,8.0,48,0.00,,,0.01,645.000000,,2013-02-24 23:21:00,
2013-02-24 15:31:00,53.0,34.0,-100.00,South,190,3.0,8.0,48,0.00,,,0.01,645.000000,,2013-02-24 23:31:00,
2013-02-24 15:41:00,53.0,34.0,-100.00,South,190,3.0,8.0,48,0.00,,,0.01,645.000000,,2013-02-24 23:41:00,
2013-02-24 15:52:00,53.0,34.0,-100.00,South,190,3.0,8.0,48,0.00,,,0.01,645.000000,,2013-02-24 23:52:00,
2013-02-24 16:21:00,53.0,37.0,-100.00,SSW,195,2.0,7.0,54,0.00,,,0.01,448.000000,,2013-02-25 00:21:00,
2013-02-24 16:31:00,53.0,37.0,-100.00,SSW,195,2.0,7.0,54,0.00,,,0.01,448.000000,,2013-02-25 00:31:00,
2013-02-24 16:41:00,53.0,37.0,-100.00,SSW,195,2.0,7.0,54,0.00,,,0.01,448.000000,,2013-02-25 00:41:00,
2013-02-24 16:51:00,53.0,37.0,-100.00,SSW,195,2.0,7.0,54,0.00,,,0.01,448.000000,,2013-02-25 00:51:00,
2013-02-24 17:21:00,45.0,34.0,-100.00,South,188,1.0,5.0,65,0.00,,,0.01,170.000000,,2013-02-25 01:21:00,
2013-02-24 17:31:00,45.0,34.0,-100.00,South,188,1.0,5.0,65,0.00,,,0.01,170.000000,,2013-02-25 01:31:00,
2013-02-24 17:42:00,45.0,34.0,-100.00,South,188,1.0,5.0,65,0.00,,,0.01,170.000000,,2013-02-25 01:42:00,
2013-02-24 17:51:00,45.0,34.0,-100.00,South,188,1.0,5.0,65,0.00,,,0.01,170.000000,,2013-02-25 01:51:00,
2013-02-24 18:21:00,42.0,33.0,-100.00,South,177,1.0,3.0,69,0.00,,,0.00,36.000000,,2013-02-25 02:21:00,
2013-02-24 18:31:00,42.0,33.0,-100.00,South,177,1.0,3.0,69,0.00,,,0.00,36.000000,,2013-02-25 02:31:00,
2013-02-24 18:41:00,42.0,33.0,-100.00,South,177,1.0,3.0,69,0.00,,,0.00,36.000000,,2013-02-25 02:41:00,
2013-02-24 18:52:00,42.0,33.0,-100.00,South,177,1.0,3.0,69,0.00,,,0.00,36.000000,,2013-02-25 02:52:00,
2013-02-24 19:21:00,39.0,35.0,-100.00,South,184,2.0,4.0,84,0.00,,,0.00,0.000000,,2013-02-25 03:21:00,
2013-02-24 19:31:00,39.0,35.0,-100.00,South,184,2.0,4.0,84,0.00,,,0.00,0.000000,,2013-02-25 03:31:00,
2013-02-24 19:41:00,39.0,35.0,-100.00,South,184,2.0,4.0,84,0.00,,,0.00,0.000000,,2013-02-25 03:41:00,
2013-02-24 19:51:00,39.0,35.0,-100.00,South,184,2.0,4.0,84,0.00,,,0.00,0.000000,,2013-02-25 03:51:00,
2013-02-24 20:21:00,39.0,33.0,-100.00,South,186,3.0,6.0,80,0.00,,,0.00,0.000000,,2013-02-25 04:21:00,
2013-02-24 20:31:00,39.0,33.0,-100.00,South,186,3.0,6.0,80,0.00,,,0.00,0.000000,,2013-02-25 04:31:00,
2013-02-24 20:41:00,39.0,33.0,-100.00,South,186,3.0,6.0,80,0.00,,,0.00,0.000000,,2013-02-25 04:41:00,
2013-02-24 20:51:00,39.0,33.0,-100.00,South,186,3.0,6.0,80,0.00,,,0.00,0.000000,,2013-02-25 04:51:00,
2013-02-24 21:22:00,39.0,35.0,-100.00,South,189,2.0,8.0,85,0.00,,,0.00,0.000000,,2013-02-25 05:22:00,
2013-02-24 21:31:00,39.0,35.0,-100.00,South,189,2.0,8.0,85,0.00,,,0.00,0.000000,,2013-02-25 05:31:00,
2013-02-24 21:41:00,39.0,35.0,-100.00,South,189,2.0,8.0,85,0.00,,,0.00,0.000000,,2013-02-25 05:41:00,
2013-02-24 21:52:00,39.0,35.0,-100.00,South,189,2.0,8.0,85,0.00,,,0.00,0.000000,,2013-02-25 05:52:00,
2013-02-24 22:21:00,39.0,37.0,-100.00,South,185,3.0,8.0,91,0.00,,,0.00,0.000000,,2013-02-25 06:21:00,
2013-02-24 22:31:00,39.0,37.0,-100.00,South,185,3.0,8.0,91,0.00,,,0.00,0.000000,,2013-02-25 06:31:00,
2013-02-24 22:41:00,39.0,37.0,-100.00,South,185,3.0,8.0,91,0.00,,,0.00,0.000000,,2013-02-25 06:41:00,
2013-02-24 22:51:00,39.0,37.0,-100.00,South,185,3.0,8.0,91,0.00,,,0.00,0.000000,,2013-02-25 06:51:00,
2013-02-24 23:11:00,40.0,40.0,-100.00,South,191,5.0,11.0,99,0.00,,,0.00,0.000000,,2013-02-25 07:11:00,
2013-02-24 23:21:00,40.0,40.0,-100.00,South,191,5.0,11.0,99,0.00,,,0.00,0.000000,,2013-02-25 07:21:00,
2013-02-24 23:31:00,40.0,40.0,-100.00,South,191,5.0,11.0,99,0.00,,,0.00,0.000000,,2013-02-25 07:31:00,
2013-02-24 23:41:00,40.0,40.0,-100.00,South,191,5.0,11.0,99,0.00,,,0.00,0.000000,,2013-02-25 07:41:00,
2013-02-24 23:51:00,40.0,40.0,-100.00,South,191,5.0,11.0,99,0.00,,,0.00,0.000000,,2013-02-25 07:51:00,